Oklahoma City/Tinker AFB, Oklahoma
Current Conditions -  °F | °C
As of 11:12 AM on Sunday 21 Dec 2014 (Local Time) from KTIK Reporting Station
Overcast Overcast  
Wind Chill: 39°   Ceiling: 900
Heat Index: 46°   Visibility: 8mi
Dew Point: 41°   Wind: 18mph
Humidity: 81%   Direction: 160°SSE
Pressure: 29.94"   Gusts: 29mph
Location:  35.42°N, 97.38°W
Report Text: KTIK 211712Z AUTO 16016G25KT 8SM OVC009 08/05 A2994 RMK AO2
Loading
Personal Weather Stations






























Interactive Weather Map New forecast layout! Learn more

10-Day Weather Forecast

Advertisements
Track Severe Weather on mobile